リヤド の空港の天気 - METARとTAF

キング・ハーリド国際空港(リヤド) ( OERK / RUH ) - サウジアラビア リヤド
飛行場実況気象(Metar)
観測時間01/21 21:00 AST (01/21 18:00 UTC)
風向・風速静穏 0m/s
視程10km以上
天気現象
なし
気温10℃
湿度34%
気圧1024hPa
METAROERK 211800Z 00000KT CAVOK 10/M05 Q1024 NOSIG
過去の天気等 Google飛行場航空写真 Wunderground天気予報

過去48時間のMETAR

飛行場予報(TAF)
発表時間: 1/21 20:00 AST (1/21 17:00 UTC)
予報対象時間: 21日21時 AST ~ 23日3時 AST
風向・風速北北西 4m/s
視程10km以上
なし
22日9時 AST ~ 22日11時 AST に徐々に
風向・風速南南東 5m/s
視程7,000m
なし
TAF OERK 211700Z 2118/2224 33008KT CAVOK
BECMG 2206/2208 15010KT 7000 SKC